Terminal Aerodrome Forecast
Issued by NWS

Home | Current Version | Previous Version | Text Only | Print | Product List | Glossary On
Versions: 1 2 3 4 5 6 7 8 9 10 11 12
000
FTUS43 KGLD 080520
TAFMCK
TAF
KMCK 080520Z 0806/0906 29009KT P6SM FEW250
     FM081700 32009KT P6SM SKC
     FM090000 30004KT P6SM FEW250
     FM090500 17004KT P6SM SCT200=

USA.gov is the U.S. government's official web portal to all federal, state and local government web resources and services.